Terminal Aerodrome Forecast
Issued by NWS Wilmington, OH

Current Version | Previous Version | Text Only | Print | Product List | Glossary Off
Versions: 1 2 3 4 5 6 7 8 9 10 11 12 13 14 15 16 17 18 19

075
FTUS41 KILN 150525
TAFDAY
TAF
KDAY 150525Z 1506/1606 19012KT P6SM SCT250 WS020/21040KT
     FM150700 20012G18KT P6SM BKN080 WS020/22045KT
     FM151300 22018G30KT P6SM VCSH BKN040
     FM151500 25020G32KT P6SM VCSH OVC025
      TEMPO 1516/1518 5SM -SHRA
     FM151800 28018G28KT P6SM OVC025
     FM152100 31014G24KT P6SM BKN050
     FM160100 32012KT P6SM BKN050=

USA.gov is the U.S. government's official web portal to all federal, state and local government web resources and services.